WetterOnline ( https://www.wetteronline.de )

Wetter aktuell Bad Bramstedt

Aktuelles Wetter: Quickborn (17m)

6-stündlich | Neueste Meldungen
Ortszeit Temperatur Wetter
Mi, 12.08. 2:00 19.2° C wolkig
Di, 11.08. 20:00 26.8° C wolkenlos
Di, 11.08. 14:00 30.5° C wolkenlos
Di, 11.08. 8:00 20.8° C wolkenlos
Di, 11.08. 2:00 19.9° C wolkenlos
Mo, 10.08. 20:00 26.8° C leicht bewölkt
Mo, 10.08. 14:00 31.3° C wolkenlos
Mo, 10.08. 8:00 21.8° C wolkenlos
Ortszeit Temperatur Wetter
Mi, 12.08. 3:30 17.6° C wolkig
Mi, 12.08. 3:20 17.6° C wolkig
Mi, 12.08. 3:10 17.8° C wolkig
Mi, 12.08. 3:00 18.1° C wolkig
Mi, 12.08. 2:50 18.1° C wolkig
Mi, 12.08. 2:40 18.4° C wolkig
Mi, 12.08. 2:30 18.8° C leicht bewölkt
Mi, 12.08. 2:00 19.2° C wolkig
Mi, 12.08. 1:00 20.0° C leicht bewölkt
Mi, 12.08. 0:00 21.0° C wolkenlos
Ortszeit Relative Feuchte Sichtweite
Mi, 12.08. 2:00 72% 55 km
Di, 11.08. 20:00 51% 50 km
Di, 11.08. 14:00 44% 35 km
Di, 11.08. 8:00 80% 30 km
Di, 11.08. 2:00 76% 35 km
Mo, 10.08. 20:00 57% 35 km
Mo, 10.08. 14:00 45% 40 km
Mo, 10.08. 8:00 78% 27 km
Ortszeit Relative Feuchte Sichtweite
Mi, 12.08. 3:30 73% 55 km
Mi, 12.08. 3:20 73% -
Mi, 12.08. 3:10 73% -
Mi, 12.08. 3:00 73% 55 km
Mi, 12.08. 2:50 73% -
Mi, 12.08. 2:40 72% -
Mi, 12.08. 2:30 71% 50 km
Mi, 12.08. 2:00 72% 55 km
Mi, 12.08. 1:00 72% 45 km
Mi, 12.08. 0:00 71% 40 km
Ortszeit Niederschlagsmenge Niederschlagsart
Mi, 12.08. 2:00 0.0 l/m2 in 6 Std. -
Di, 11.08. 20:00 0.0 l/m2 in 12 Std. -
Di, 11.08. 14:00 0.0 l/m2 in 6 Std. -
Di, 11.08. 8:00 0.0 l/m2 in 12 Std. -
Di, 11.08. 2:00 0.0 l/m2 in 6 Std. -
Mo, 10.08. 20:00 0.0 l/m2 in 12 Std. -
Mo, 10.08. 14:00 0.0 l/m2 in 6 Std. -
Mo, 10.08. 8:00 0.0 l/m2 in 12 Std. -
Ortszeit Niederschlagsmenge Niederschlagsart
Mi, 12.08. 3:30 0.0 l/m2 in 1 Std. -
Mi, 12.08. 3:20 keine Meldung -
Mi, 12.08. 3:10 keine Meldung -
Mi, 12.08. 3:00 0.0 l/m2 in 1 Std. -
Mi, 12.08. 2:50 keine Meldung -
Mi, 12.08. 2:40 keine Meldung -
Mi, 12.08. 2:30 0.0 l/m2 in 1 Std. -
Mi, 12.08. 2:00 0.0 l/m2 in 1 Std. -
Mi, 12.08. 1:00 keine Meldung -
Mi, 12.08. 0:00 keine Meldung -
Ortszeit Stärke Spitze Richtung
km/h Bft. km/h Grad Sektor
Mi, 12.08. 2:00 13 3 26 70° O
Di, 11.08. 20:00 14 3 43 50° NO
Di, 11.08. 14:00 17 3 35 80° O
Di, 11.08. 8:00 9 2 24 80° O
Di, 11.08. 2:00 6 1 31 60° NO
Mo, 10.08. 20:00 18 3 32 70° O
Mo, 10.08. 14:00 13 3 24 80° O
Mo, 10.08. 8:00 7 2 14 60° NO
Ortszeit Stärke Spitze Richtung
km/h Bft. km/h Grad Sektor
Mi, 12.08. 3:30 9 2 17 70° O
Mi, 12.08. 3:20 9 2 - 70° O
Mi, 12.08. 3:10 9 2 - 70° O
Mi, 12.08. 3:00 11 2 25 80° O
Mi, 12.08. 2:50 11 2 - 80° O
Mi, 12.08. 2:40 11 2 - 70° O
Mi, 12.08. 2:30 13 3 24 80° O
Mi, 12.08. 2:00 13 3 22 70° O
Mi, 12.08. 1:00 11 2 25 80° O
Mi, 12.08. 0:00 14 3 22 80° O
Ortszeit Untergrenze Bedeckung Gattung
total tief tief mittel hoch
Mi, 12.08. 2:00 12000 m 7/8 0/8 - - -
Di, 11.08. 20:00 - 0/8 0/8 - - -
Di, 11.08. 14:00 - 0/8 0/8 - - -
Di, 11.08. 8:00 - 0/8 0/8 - - -
Di, 11.08. 2:00 - 0/8 0/8 - - -
Mo, 10.08. 20:00 2100 m 4/8 4/8 - - -
Mo, 10.08. 14:00 - 0/8 0/8 - - -
Mo, 10.08. 8:00 - 0/8 0/8 - - -
Ortszeit Bedeckungsgrad in Achtel und Wolkenuntergrenze
Mi, 12.08. 3:30 8(12000m)
Mi, 12.08. 3:20 8(12000m)
Mi, 12.08. 3:10 7(12000m)
Mi, 12.08. 3:00 7(12000m)
Mi, 12.08. 2:50 7(12000m)
Mi, 12.08. 2:40 8(10500m)
Mi, 12.08. 2:30 4(10500m)
Mi, 12.08. 2:00 7(12000m)
Mi, 12.08. 1:00 4(12000m)
Mi, 12.08. 0:00 keine Wolken
Ortszeit Luftdruck NN (hPa) Tendenz (hPa in 3 Std.)
Mi, 12.08. 2:00 1020 + 0,3
Di, 11.08. 20:00 1019 - 0,1
Di, 11.08. 14:00 1020 - 0,6
Di, 11.08. 8:00 1020 + 0,3
Di, 11.08. 2:00 1019 + 0,9
Mo, 10.08. 20:00 1018 + 1,1
Mo, 10.08. 14:00 1018 - 0,4
Mo, 10.08. 8:00 1018 0,0
Ortszeit Luftdruck NN (hPa) Tendenz (hPa in 3 Std.)
Mi, 12.08. 3:30 1020 0,0
Mi, 12.08. 3:20 1020 keine Meldung
Mi, 12.08. 3:10 1020 keine Meldung
Mi, 12.08. 3:00 1020 0,0
Mi, 12.08. 2:50 1020 keine Meldung
Mi, 12.08. 2:40 1020 keine Meldung
Mi, 12.08. 2:30 1020 + 0,2
Mi, 12.08. 2:00 1020 + 0,3
Mi, 12.08. 1:00 1020 + 0,9
Mi, 12.08. 0:00 1020 + 1,1
Ortszeit Schneehöhe (cm)
Mi, 12.08. 2:00 -
Di, 11.08. 20:00 -
Di, 11.08. 14:00 -
Di, 11.08. 8:00 -
Di, 11.08. 2:00 -
Mo, 10.08. 20:00 -
Mo, 10.08. 14:00 -
Mo, 10.08. 8:00 -
Ortszeit Schneehöhe (cm)
Mi, 12.08. 3:30 -
Mi, 12.08. 3:20 -
Mi, 12.08. 3:10 -
Mi, 12.08. 3:00 -
Mi, 12.08. 2:50 -
Mi, 12.08. 2:40 -
Mi, 12.08. 2:30 -
Mi, 12.08. 2:00 -
Mi, 12.08. 1:00 -
Mi, 12.08. 0:00 -
Link zu dieser Seite / Seite empfehlen

Das Wetter in ...